sensor_id;sensor_type;location;lat;lon;timestamp;P1;durP1;ratioP1;P2;durP2;ratioP2
75295;SDS011;64623;44.738;37.804;2023-10-09T00:00:16;0.60;;;0.22;;
75295;SDS011;64623;44.738;37.804;2023-10-09T00:01:37;0.70;;;0.10;;
75295;SDS011;64623;44.738;37.804;2023-10-09T00:02:41;0.47;;;0.35;;
75295;SDS011;64623;44.738;37.804;2023-10-09T00:03:46;1.05;;;0.75;;
75295;SDS011;64623;44.738;37.804;2023-10-09T00:04:56;0.52;;;0.25;;
75295;SDS011;64623;44.738;37.804;2023-10-09T00:05:59;0.90;;;0.43;;
75295;SDS011;64623;44.738;37.804;2023-10-09T00:07:03;0.57;;;0.10;;
75295;SDS011;64623;44.738;37.804;2023-10-09T00:08:13;0.93;;;0.25;;
75295;SDS011;64623;44.738;37.804;2023-10-09T00:09:32;1.58;;;0.20;;
75295;SDS011;64623;44.738;37.804;2023-10-09T00:10:43;1.08;;;0.47;;
75295;SDS011;64623;44.738;37.804;2023-10-09T00:11:55;0.85;;;0.13;;
75295;SDS011;64623;44.738;37.804;2023-10-09T00:13:03;0.60;;;0.20;;
75295;SDS011;64623;44.738;37.804;2023-10-09T00:14:06;0.60;;;0.25;;
75295;SDS011;64623;44.738;37.804;2023-10-09T00:15:09;0.80;;;0.22;;
75295;SDS011;64623;44.738;37.804;2023-10-09T00:16:15;0.65;;;0.20;;
75295;SDS011;64623;44.738;37.804;2023-10-09T00:17:20;0.68;;;0.15;;
75295;SDS011;64623;44.738;37.804;2023-10-09T00:18:25;1.92;;;0.90;;
75295;SDS011;64623;44.738;37.804;2023-10-09T00:19:31;1.50;;;0.75;;
75295;SDS011;64623;44.738;37.804;2023-10-09T00:20:38;0.57;;;0.35;;
75295;SDS011;64623;44.738;37.804;2023-10-09T00:21:45;0.73;;;0.28;;
75295;SDS011;64623;44.738;37.804;2023-10-09T00:22:49;1.42;;;0.68;;
75295;SDS011;64623;44.738;37.804;2023-10-09T00:23:53;1.42;;;0.20;;
75295;SDS011;64623;44.738;37.804;2023-10-09T00:25:01;0.40;;;0.10;;
75295;SDS011;64623;44.738;37.804;2023-10-09T00:26:13;0.85;;;0.45;;
75295;SDS011;64623;44.738;37.804;2023-10-09T00:27:25;1.20;;;0.25;;
75295;SDS011;64623;44.738;37.804;2023-10-09T00:28:36;0.80;;;0.35;;
75295;SDS011;64623;44.738;37.804;2023-10-09T00:29:46;0.85;;;0.20;;
75295;SDS011;64623;44.738;37.804;2023-10-09T00:30:50;0.98;;;0.13;;
75295;SDS011;64623;44.738;37.804;2023-10-09T00:31:55;1.02;;;0.32;;
75295;SDS011;64623;44.738;37.804;2023-10-09T00:33:05;1.30;;;0.47;;
75295;SDS011;64623;44.738;37.804;2023-10-09T00:34:10;0.57;;;0.50;;
75295;SDS011;64623;44.738;37.804;2023-10-09T00:35:20;0.90;;;0.20;;
75295;SDS011;64623;44.738;37.804;2023-10-09T00:36:39;0.88;;;0.40;;
75295;SDS011;64623;44.738;37.804;2023-10-09T00:37:52;0.57;;;0.22;;
75295;SDS011;64623;44.738;37.804;2023-10-09T00:39:02;0.98;;;0.20;;
75295;SDS011;64623;44.738;37.804;2023-10-09T00:40:15;0.88;;;0.40;;
75295;SDS011;64623;44.738;37.804;2023-10-09T00:41:30;1.55;;;0.35;;
75295;SDS011;64623;44.738;37.804;2023-10-09T00:42:37;1.70;;;0.22;;
75295;SDS011;64623;44.738;37.804;2023-10-09T00:43:41;1.15;;;0.28;;
75295;SDS011;64623;44.738;37.804;2023-10-09T00:44:45;0.90;;;0.20;;
75295;SDS011;64623;44.738;37.804;2023-10-09T00:45:50;0.60;;;0.30;;
75295;SDS011;64623;44.738;37.804;2023-10-09T00:46:55;1.40;;;0.63;;
75295;SDS011;64623;44.738;37.804;2023-10-09T00:48:01;0.90;;;0.22;;
75295;SDS011;64623;44.738;37.804;2023-10-09T00:49:05;0.98;;;0.25;;
75295;SDS011;64623;44.738;37.804;2023-10-09T00:50:12;0.80;;;0.20;;
75295;SDS011;64623;44.738;37.804;2023-10-09T00:51:17;0.75;;;0.00;;
75295;SDS011;64623;44.738;37.804;2023-10-09T00:52:24;0.98;;;0.45;;
75295;SDS011;64623;44.738;37.804;2023-10-09T00:53:53;1.42;;;0.40;;
75295;SDS011;64623;44.738;37.804;2023-10-09T00:54:59;0.90;;;0.20;;
75295;SDS011;64623;44.738;37.804;2023-10-09T00:56:17;0.90;;;0.52;;
75295;SDS011;64623;44.738;37.804;2023-10-09T00:57:22;0.68;;;0.20;;
75295;SDS011;64623;44.738;37.804;2023-10-09T00:58:26;1.23;;;0.22;;
75295;SDS011;64623;44.738;37.804;2023-10-09T00:59:38;0.55;;;0.28;;
75295;SDS011;64623;44.738;37.804;2023-10-09T01:00:42;2.58;;;0.10;;
75295;SDS011;64623;44.738;37.804;2023-10-09T01:01:46;0.80;;;0.13;;
75295;SDS011;64623;44.738;37.804;2023-10-09T01:03:02;0.88;;;0.17;;
75295;SDS011;64623;44.738;37.804;2023-10-09T01:04:20;0.40;;;0.22;;
75295;SDS011;64623;44.738;37.804;2023-10-09T01:05:24;1.23;;;0.17;;
75295;SDS011;64623;44.738;37.804;2023-10-09T01:06:29;1.17;;;0.38;;
75295;SDS011;64623;44.738;37.804;2023-10-09T01:07:35;0.90;;;0.22;;
75295;SDS011;64623;44.738;37.804;2023-10-09T01:08:42;1.50;;;0.10;;
75295;SDS011;64623;44.738;37.804;2023-10-09T01:09:45;1.65;;;0.10;;
75295;SDS011;64623;44.738;37.804;2023-10-09T01:10:48;1.08;;;0.15;;
75295;SDS011;64623;44.738;37.804;2023-10-09T01:11:54;0.80;;;0.15;;
75295;SDS011;64623;44.738;37.804;2023-10-09T01:13:20;1.30;;;0.30;;
75295;SDS011;64623;44.738;37.804;2023-10-09T01:14:23;0.60;;;0.22;;
75295;SDS011;64623;44.738;37.804;2023-10-09T01:15:25;0.47;;;0.22;;
75295;SDS011;64623;44.738;37.804;2023-10-09T01:16:46;0.90;;;0.20;;
75295;SDS011;64623;44.738;37.804;2023-10-09T01:17:49;1.52;;;0.30;;
75295;SDS011;64623;44.738;37.804;2023-10-09T01:18:53;1.17;;;0.43;;
75295;SDS011;64623;44.738;37.804;2023-10-09T01:19:59;1.52;;;0.30;;
75295;SDS011;64623;44.738;37.804;2023-10-09T01:21:06;0.45;;;0.13;;
75295;SDS011;64623;44.738;37.804;2023-10-09T01:22:09;0.57;;;0.43;;
75295;SDS011;64623;44.738;37.804;2023-10-09T01:23:15;0.82;;;0.45;;
75295;SDS011;64623;44.738;37.804;2023-10-09T01:24:18;1.13;;;0.20;;
75295;SDS011;64623;44.738;37.804;2023-10-09T01:25:22;1.15;;;0.13;;
75295;SDS011;64623;44.738;37.804;2023-10-09T01:26:25;2.22;;;0.40;;
75295;SDS011;64623;44.738;37.804;2023-10-09T01:27:28;2.00;;;0.40;;
75295;SDS011;64623;44.738;37.804;2023-10-09T01:28:34;0.82;;;0.17;;
75295;SDS011;64623;44.738;37.804;2023-10-09T01:29:37;0.60;;;0.20;;
75295;SDS011;64623;44.738;37.804;2023-10-09T01:30:42;1.92;;;0.30;;
75295;SDS011;64623;44.738;37.804;2023-10-09T01:31:46;0.60;;;0.20;;
75295;SDS011;64623;44.738;37.804;2023-10-09T01:33:03;2.10;;;0.30;;
75295;SDS011;64623;44.738;37.804;2023-10-09T01:34:14;1.23;;;0.30;;
75295;SDS011;64623;44.738;37.804;2023-10-09T01:35:17;0.82;;;0.40;;
75295;SDS011;64623;44.738;37.804;2023-10-09T01:36:24;0.70;;;0.32;;
75295;SDS011;64623;44.738;37.804;2023-10-09T01:37:33;1.05;;;0.38;;
75295;SDS011;64623;44.738;37.804;2023-10-09T01:38:39;1.45;;;0.15;;
75295;SDS011;64623;44.738;37.804;2023-10-09T01:39:46;1.67;;;0.22;;
75295;SDS011;64623;44.738;37.804;2023-10-09T01:40:50;2.53;;;0.30;;
75295;SDS011;64623;44.738;37.804;2023-10-09T01:41:54;1.10;;;0.10;;
75295;SDS011;64623;44.738;37.804;2023-10-09T01:43:00;1.33;;;0.20;;
75295;SDS011;64623;44.738;37.804;2023-10-09T01:44:06;0.85;;;0.40;;
75295;SDS011;64623;44.738;37.804;2023-10-09T01:45:14;1.63;;;0.43;;
75295;SDS011;64623;44.738;37.804;2023-10-09T01:46:23;0.70;;;0.30;;
75295;SDS011;64623;44.738;37.804;2023-10-09T01:47:26;1.60;;;0.40;;
75295;SDS011;64623;44.738;37.804;2023-10-09T01:48:34;0.70;;;0.38;;
75295;SDS011;64623;44.738;37.804;2023-10-09T01:49:41;1.23;;;0.35;;
75295;SDS011;64623;44.738;37.804;2023-10-09T01:50:45;0.93;;;0.20;;
75295;SDS011;64623;44.738;37.804;2023-10-09T01:51:51;1.42;;;0.40;;
75295;SDS011;64623;44.738;37.804;2023-10-09T01:52:55;1.83;;;0.20;;
75295;SDS011;64623;44.738;37.804;2023-10-09T01:53:58;1.15;;;0.20;;
75295;SDS011;64623;44.738;37.804;2023-10-09T01:55:01;1.45;;;0.60;;
75295;SDS011;64623;44.738;37.804;2023-10-09T01:56:23;1.23;;;0.43;;
75295;SDS011;64623;44.738;37.804;2023-10-09T01:57:26;0.80;;;0.47;;
75295;SDS011;64623;44.738;37.804;2023-10-09T01:58:32;0.93;;;0.43;;
75295;SDS011;64623;44.738;37.804;2023-10-09T01:59:36;0.90;;;0.47;;
75295;SDS011;64623;44.738;37.804;2023-10-09T02:00:46;1.27;;;0.38;;
75295;SDS011;64623;44.738;37.804;2023-10-09T02:01:57;2.85;;;0.20;;
75295;SDS011;64623;44.738;37.804;2023-10-09T02:03:03;0.80;;;0.32;;
75295;SDS011;64623;44.738;37.804;2023-10-09T02:04:08;1.10;;;0.60;;
75295;SDS011;64623;44.738;37.804;2023-10-09T02:05:16;1.50;;;0.50;;
75295;SDS011;64623;44.738;37.804;2023-10-09T02:06:19;1.15;;;0.28;;
75295;SDS011;64623;44.738;37.804;2023-10-09T02:07:34;0.60;;;0.22;;
75295;SDS011;64623;44.738;37.804;2023-10-09T02:08:46;1.60;;;0.40;;
75295;SDS011;64623;44.738;37.804;2023-10-09T02:09:53;1.02;;;0.20;;
75295;SDS011;64623;44.738;37.804;2023-10-09T02:10:56;1.05;;;0.50;;
75295;SDS011;64623;44.738;37.804;2023-10-09T02:11:59;0.77;;;0.13;;
75295;SDS011;64623;44.738;37.804;2023-10-09T02:13:03;2.13;;;0.45;;
75295;SDS011;64623;44.738;37.804;2023-10-09T02:14:14;2.35;;;0.35;;
75295;SDS011;64623;44.738;37.804;2023-10-09T02:15:26;2.22;;;0.52;;
75295;SDS011;64623;44.738;37.804;2023-10-09T02:16:48;3.63;;;0.70;;
75295;SDS011;64623;44.738;37.804;2023-10-09T02:18:10;2.30;;;0.50;;
75295;SDS011;64623;44.738;37.804;2023-10-09T02:19:42;3.70;;;1.13;;
75295;SDS011;64623;44.738;37.804;2023-10-09T02:20:53;4.05;;;0.80;;
75295;SDS011;64623;44.738;37.804;2023-10-09T02:22:07;1.95;;;0.60;;
75295;SDS011;64623;44.738;37.804;2023-10-09T02:23:16;10.30;;;1.25;;
75295;SDS011;64623;44.738;37.804;2023-10-09T02:24:19;1.35;;;0.73;;
75295;SDS011;64623;44.738;37.804;2023-10-09T02:25:42;3.25;;;0.93;;
75295;SDS011;64623;44.738;37.804;2023-10-09T02:26:46;1.80;;;0.68;;
75295;SDS011;64623;44.738;37.804;2023-10-09T02:28:09;2.10;;;1.08;;
75295;SDS011;64623;44.738;37.804;2023-10-09T02:29:20;2.05;;;1.08;;
75295;SDS011;64623;44.738;37.804;2023-10-09T02:30:26;5.60;;;0.80;;
75295;SDS011;64623;44.738;37.804;2023-10-09T02:31:31;1.90;;;0.82;;
75295;SDS011;64623;44.738;37.804;2023-10-09T02:32:46;3.13;;;0.63;;
75295;SDS011;64623;44.738;37.804;2023-10-09T02:33:55;2.33;;;0.60;;
75295;SDS011;64623;44.738;37.804;2023-10-09T02:34:58;1.58;;;0.63;;
75295;SDS011;64623;44.738;37.804;2023-10-09T02:36:13;3.90;;;1.00;;
75295;SDS011;64623;44.738;37.804;2023-10-09T02:37:16;2.45;;;0.73;;
75295;SDS011;64623;44.738;37.804;2023-10-09T02:38:25;1.73;;;1.52;;
75295;SDS011;64623;44.738;37.804;2023-10-09T02:39:28;1.92;;;0.65;;
75295;SDS011;64623;44.738;37.804;2023-10-09T02:40:38;1.30;;;0.43;;
75295;SDS011;64623;44.738;37.804;2023-10-09T02:42:03;1.85;;;0.63;;
75295;SDS011;64623;44.738;37.804;2023-10-09T02:43:21;2.50;;;1.00;;
75295;SDS011;64623;44.738;37.804;2023-10-09T02:44:27;3.65;;;1.20;;
75295;SDS011;64623;44.738;37.804;2023-10-09T02:45:34;2.47;;;0.70;;
75295;SDS011;64623;44.738;37.804;2023-10-09T02:46:44;4.38;;;1.40;;
75295;SDS011;64623;44.738;37.804;2023-10-09T02:47:47;2.25;;;0.65;;
75295;SDS011;64623;44.738;37.804;2023-10-09T02:48:50;3.30;;;0.68;;
75295;SDS011;64623;44.738;37.804;2023-10-09T02:49:53;2.95;;;1.42;;
75295;SDS011;64623;44.738;37.804;2023-10-09T02:51:03;2.47;;;1.13;;
75295;SDS011;64623;44.738;37.804;2023-10-09T02:52:06;5.10;;;1.67;;
75295;SDS011;64623;44.738;37.804;2023-10-09T02:53:10;3.50;;;1.63;;
75295;SDS011;64623;44.738;37.804;2023-10-09T02:54:20;3.97;;;1.35;;
75295;SDS011;64623;44.738;37.804;2023-10-09T02:55:23;4.35;;;1.70;;
75295;SDS011;64623;44.738;37.804;2023-10-09T02:56:27;2.30;;;0.85;;
75295;SDS011;64623;44.738;37.804;2023-10-09T02:57:45;3.25;;;1.33;;
75295;SDS011;64623;44.738;37.804;2023-10-09T02:58:54;3.80;;;1.05;;
75295;SDS011;64623;44.738;37.804;2023-10-09T02:59:58;4.28;;;0.90;;
75295;SDS011;64623;44.738;37.804;2023-10-09T03:01:01;3.90;;;0.63;;
75295;SDS011;64623;44.738;37.804;2023-10-09T03:02:04;2.70;;;0.90;;
75295;SDS011;64623;44.738;37.804;2023-10-09T03:03:07;3.30;;;1.50;;
75295;SDS011;64623;44.738;37.804;2023-10-09T03:04:10;3.20;;;0.90;;
75295;SDS011;64623;44.738;37.804;2023-10-09T03:05:13;4.80;;;1.20;;
75295;SDS011;64623;44.738;37.804;2023-10-09T03:06:17;3.25;;;1.00;;
75295;SDS011;64623;44.738;37.804;2023-10-09T03:07:27;2.40;;;0.70;;
75295;SDS011;64623;44.738;37.804;2023-10-09T03:08:31;2.67;;;0.88;;
75295;SDS011;64623;44.738;37.804;2023-10-09T03:09:33;3.00;;;0.73;;
75295;SDS011;64623;44.738;37.804;2023-10-09T03:10:37;4.25;;;1.00;;
75295;SDS011;64623;44.738;37.804;2023-10-09T03:11:40;2.67;;;0.70;;
75295;SDS011;64623;44.738;37.804;2023-10-09T03:12:44;3.38;;;1.17;;
75295;SDS011;64623;44.738;37.804;2023-10-09T03:13:47;3.67;;;0.60;;
75295;SDS011;64623;44.738;37.804;2023-10-09T03:14:50;2.45;;;1.27;;
75295;SDS011;64623;44.738;37.804;2023-10-09T03:15:53;2.60;;;0.77;;
75295;SDS011;64623;44.738;37.804;2023-10-09T03:16:56;2.85;;;0.73;;
75295;SDS011;64623;44.738;37.804;2023-10-09T03:17:59;2.50;;;0.63;;
75295;SDS011;64623;44.738;37.804;2023-10-09T03:19:02;2.22;;;0.77;;
75295;SDS011;64623;44.738;37.804;2023-10-09T03:20:05;2.65;;;0.75;;
75295;SDS011;64623;44.738;37.804;2023-10-09T03:21:14;1.98;;;0.57;;
75295;SDS011;64623;44.738;37.804;2023-10-09T03:22:19;3.13;;;1.10;;
75295;SDS011;64623;44.738;37.804;2023-10-09T03:23:22;2.40;;;0.68;;
75295;SDS011;64623;44.738;37.804;2023-10-09T03:24:25;3.85;;;1.02;;
75295;SDS011;64623;44.738;37.804;2023-10-09T03:26:35;1.52;;;0.75;;
75295;SDS011;64623;44.738;37.804;2023-10-09T03:27:42;2.45;;;1.15;;
75295;SDS011;64623;44.738;37.804;2023-10-09T03:28:49;2.30;;;0.55;;
75295;SDS011;64623;44.738;37.804;2023-10-09T03:29:51;3.95;;;1.23;;
75295;SDS011;64623;44.738;37.804;2023-10-09T03:30:56;3.38;;;0.65;;
75295;SDS011;64623;44.738;37.804;2023-10-09T03:32:01;3.83;;;1.02;;
75295;SDS011;64623;44.738;37.804;2023-10-09T03:33:05;2.60;;;1.27;;
75295;SDS011;64623;44.738;37.804;2023-10-09T03:34:09;2.40;;;0.82;;
75295;SDS011;64623;44.738;37.804;2023-10-09T03:35:13;5.38;;;0.98;;
75295;SDS011;64623;44.738;37.804;2023-10-09T03:36:19;3.50;;;1.38;;
75295;SDS011;64623;44.738;37.804;2023-10-09T03:37:22;5.38;;;2.42;;
75295;SDS011;64623;44.738;37.804;2023-10-09T03:38:36;4.32;;;1.08;;
75295;SDS011;64623;44.738;37.804;2023-10-09T03:39:40;2.63;;;1.42;;
75295;SDS011;64623;44.738;37.804;2023-10-09T03:40:49;5.68;;;1.98;;
75295;SDS011;64623;44.738;37.804;2023-10-09T03:41:52;3.60;;;1.90;;
75295;SDS011;64623;44.738;37.804;2023-10-09T03:43:00;5.53;;;2.25;;
75295;SDS011;64623;44.738;37.804;2023-10-09T03:44:03;3.90;;;1.77;;
75295;SDS011;64623;44.738;37.804;2023-10-09T03:45:08;4.25;;;2.70;;
75295;SDS011;64623;44.738;37.804;2023-10-09T03:46:27;6.22;;;2.55;;
75295;SDS011;64623;44.738;37.804;2023-10-09T03:47:35;7.78;;;2.03;;
75295;SDS011;64623;44.738;37.804;2023-10-09T03:48:38;3.65;;;1.95;;
75295;SDS011;64623;44.738;37.804;2023-10-09T03:49:40;4.50;;;1.50;;
75295;SDS011;64623;44.738;37.804;2023-10-09T03:50:43;3.33;;;1.58;;
75295;SDS011;64623;44.738;37.804;2023-10-09T03:51:47;3.75;;;1.15;;
75295;SDS011;64623;44.738;37.804;2023-10-09T03:52:52;3.92;;;1.15;;
75295;SDS011;64623;44.738;37.804;2023-10-09T03:53:57;3.47;;;1.15;;
75295;SDS011;64623;44.738;37.804;2023-10-09T03:55:00;4.43;;;1.55;;
75295;SDS011;64623;44.738;37.804;2023-10-09T03:56:04;2.88;;;1.13;;
75295;SDS011;64623;44.738;37.804;2023-10-09T03:57:14;2.60;;;1.10;;
75295;SDS011;64623;44.738;37.804;2023-10-09T03:58:21;4.22;;;1.15;;
75295;SDS011;64623;44.738;37.804;2023-10-09T03:59:24;3.58;;;0.93;;
75295;SDS011;64623;44.738;37.804;2023-10-09T04:00:33;2.67;;;1.15;;
75295;SDS011;64623;44.738;37.804;2023-10-09T04:01:47;3.33;;;0.90;;
75295;SDS011;64623;44.738;37.804;2023-10-09T04:02:54;5.28;;;1.00;;
75295;SDS011;64623;44.738;37.804;2023-10-09T04:04:00;3.83;;;1.15;;
75295;SDS011;64623;44.738;37.804;2023-10-09T04:05:03;8.30;;;1.50;;
75295;SDS011;64623;44.738;37.804;2023-10-09T04:06:09;4.32;;;1.50;;
75295;SDS011;64623;44.738;37.804;2023-10-09T04:07:13;4.03;;;1.10;;
75295;SDS011;64623;44.738;37.804;2023-10-09T04:08:18;4.22;;;1.60;;
75295;SDS011;64623;44.738;37.804;2023-10-09T04:09:31;3.53;;;1.08;;
75295;SDS011;64623;44.738;37.804;2023-10-09T04:10:38;3.72;;;1.48;;
75295;SDS011;64623;44.738;37.804;2023-10-09T04:11:54;5.45;;;1.65;;
75295;SDS011;64623;44.738;37.804;2023-10-09T04:13:13;4.55;;;2.13;;
75295;SDS011;64623;44.738;37.804;2023-10-09T04:14:20;4.40;;;1.50;;
75295;SDS011;64623;44.738;37.804;2023-10-09T04:15:49;4.22;;;1.60;;
75295;SDS011;64623;44.738;37.804;2023-10-09T04:16:55;2.95;;;1.60;;
75295;SDS011;64623;44.738;37.804;2023-10-09T04:18:08;4.47;;;2.28;;
75295;SDS011;64623;44.738;37.804;2023-10-09T04:19:17;5.80;;;1.45;;
75295;SDS011;64623;44.738;37.804;2023-10-09T04:20:24;4.60;;;1.75;;
75295;SDS011;64623;44.738;37.804;2023-10-09T04:21:47;5.75;;;2.83;;
75295;SDS011;64623;44.738;37.804;2023-10-09T04:22:50;18.27;;;11.65;;
75295;SDS011;64623;44.738;37.804;2023-10-09T04:23:53;16.10;;;11.23;;
75295;SDS011;64623;44.738;37.804;2023-10-09T04:25:02;13.32;;;7.65;;
75295;SDS011;64623;44.738;37.804;2023-10-09T04:26:09;10.70;;;6.88;;
75295;SDS011;64623;44.738;37.804;2023-10-09T04:27:16;7.28;;;2.80;;
75295;SDS011;64623;44.738;37.804;2023-10-09T04:28:19;5.25;;;2.30;;
75295;SDS011;64623;44.738;37.804;2023-10-09T04:29:24;6.88;;;2.75;;
75295;SDS011;64623;44.738;37.804;2023-10-09T04:30:30;7.97;;;3.22;;
75295;SDS011;64623;44.738;37.804;2023-10-09T04:31:42;5.63;;;3.53;;
75295;SDS011;64623;44.738;37.804;2023-10-09T04:32:47;6.22;;;2.95;;
75295;SDS011;64623;44.738;37.804;2023-10-09T04:33:51;4.90;;;2.40;;
75295;SDS011;64623;44.738;37.804;2023-10-09T04:35:00;5.38;;;2.55;;
75295;SDS011;64623;44.738;37.804;2023-10-09T04:36:24;6.55;;;3.25;;
75295;SDS011;64623;44.738;37.804;2023-10-09T04:37:35;5.88;;;3.95;;
75295;SDS011;64623;44.738;37.804;2023-10-09T04:38:41;7.30;;;5.93;;
75295;SDS011;64623;44.738;37.804;2023-10-09T04:39:58;7.15;;;5.78;;
75295;SDS011;64623;44.738;37.804;2023-10-09T04:41:13;6.60;;;4.05;;
75295;SDS011;64623;44.738;37.804;2023-10-09T04:42:29;5.90;;;3.88;;
75295;SDS011;64623;44.738;37.804;2023-10-09T04:43:38;7.15;;;4.22;;
75295;SDS011;64623;44.738;37.804;2023-10-09T04:44:47;4.10;;;3.00;;
75295;SDS011;64623;44.738;37.804;2023-10-09T04:46:07;6.05;;;2.95;;
75295;SDS011;64623;44.738;37.804;2023-10-09T04:47:14;4.20;;;2.75;;
75295;SDS011;64623;44.738;37.804;2023-10-09T04:48:17;3.75;;;2.58;;
75295;SDS011;64623;44.738;37.804;2023-10-09T04:49:36;3.35;;;2.60;;
75295;SDS011;64623;44.738;37.804;2023-10-09T04:50:50;5.18;;;2.55;;
75295;SDS011;64623;44.738;37.804;2023-10-09T04:52:11;3.58;;;2.08;;
75295;SDS011;64623;44.738;37.804;2023-10-09T04:53:49;5.40;;;2.10;;
75295;SDS011;64623;44.738;37.804;2023-10-09T04:55:17;4.10;;;2.55;;
75295;SDS011;64623;44.738;37.804;2023-10-09T04:56:27;3.20;;;1.90;;
75295;SDS011;64623;44.738;37.804;2023-10-09T04:58:46;3.08;;;1.40;;
75295;SDS011;64623;44.738;37.804;2023-10-09T04:59:51;2.95;;;1.92;;
75295;SDS011;64623;44.738;37.804;2023-10-09T05:00:54;5.15;;;2.03;;
75295;SDS011;64623;44.738;37.804;2023-10-09T05:02:00;3.33;;;2.65;;
75295;SDS011;64623;44.738;37.804;2023-10-09T05:03:06;5.43;;;2.30;;
75295;SDS011;64623;44.738;37.804;2023-10-09T05:04:09;5.60;;;2.85;;
75295;SDS011;64623;44.738;37.804;2023-10-09T05:05:29;5.45;;;2.08;;
75295;SDS011;64623;44.738;37.804;2023-10-09T05:06:45;3.50;;;2.33;;
75295;SDS011;64623;44.738;37.804;2023-10-09T05:08:12;5.80;;;2.20;;
75295;SDS011;64623;44.738;37.804;2023-10-09T05:09:22;3.72;;;1.83;;
75295;SDS011;64623;44.738;37.804;2023-10-09T05:10:26;2.83;;;1.67;;
75295;SDS011;64623;44.738;37.804;2023-10-09T05:11:29;3.00;;;1.17;;
75295;SDS011;64623;44.738;37.804;2023-10-09T05:13:01;4.43;;;1.63;;
75295;SDS011;64623;44.738;37.804;2023-10-09T05:14:04;3.50;;;1.70;;
75295;SDS011;64623;44.738;37.804;2023-10-09T05:15:16;2.85;;;1.65;;
75295;SDS011;64623;44.738;37.804;2023-10-09T05:16:19;3.20;;;1.63;;
75295;SDS011;64623;44.738;37.804;2023-10-09T05:17:27;3.22;;;1.55;;
75295;SDS011;64623;44.738;37.804;2023-10-09T05:18:30;3.22;;;1.70;;
75295;SDS011;64623;44.738;37.804;2023-10-09T05:19:39;2.85;;;1.40;;
75295;SDS011;64623;44.738;37.804;2023-10-09T05:20:56;3.35;;;1.13;;
75295;SDS011;64623;44.738;37.804;2023-10-09T05:22:19;2.83;;;1.52;;
75295;SDS011;64623;44.738;37.804;2023-10-09T05:23:40;3.10;;;1.27;;
75295;SDS011;64623;44.738;37.804;2023-10-09T05:25:12;1.90;;;1.05;;
75295;SDS011;64623;44.738;37.804;2023-10-09T05:26:27;3.47;;;1.30;;
75295;SDS011;64623;44.738;37.804;2023-10-09T05:27:48;2.90;;;1.20;;
75295;SDS011;64623;44.738;37.804;2023-10-09T05:28:54;4.13;;;1.17;;
75295;SDS011;64623;44.738;37.804;2023-10-09T05:30:00;2.58;;;1.48;;
75295;SDS011;64623;44.738;37.804;2023-10-09T05:31:15;4.00;;;1.95;;
75295;SDS011;64623;44.738;37.804;2023-10-09T05:32:56;2.03;;;0.80;;
75295;SDS011;64623;44.738;37.804;2023-10-09T05:34:14;6.03;;;1.33;;
75295;SDS011;64623;44.738;37.804;2023-10-09T05:35:22;3.60;;;1.10;;
75295;SDS011;64623;44.738;37.804;2023-10-09T05:36:41;2.67;;;1.00;;
75295;SDS011;64623;44.738;37.804;2023-10-09T05:37:49;5.25;;;0.98;;
75295;SDS011;64623;44.738;37.804;2023-10-09T05:39:03;3.85;;;1.13;;
75295;SDS011;64623;44.738;37.804;2023-10-09T05:40:24;2.83;;;0.80;;
75295;SDS011;64623;44.738;37.804;2023-10-09T05:41:33;3.55;;;1.73;;
75295;SDS011;64623;44.738;37.804;2023-10-09T05:43:05;3.45;;;0.68;;
75295;SDS011;64623;44.738;37.804;2023-10-09T05:44:08;2.83;;;1.00;;
75295;SDS011;64623;44.738;37.804;2023-10-09T05:45:29;1.90;;;1.23;;
75295;SDS011;64623;44.738;37.804;2023-10-09T05:46:52;4.63;;;1.05;;
75295;SDS011;64623;44.738;37.804;2023-10-09T05:48:13;3.72;;;1.05;;
75295;SDS011;64623;44.738;37.804;2023-10-09T05:49:19;2.75;;;1.15;;
75295;SDS011;64623;44.738;37.804;2023-10-09T05:50:27;1.65;;;0.90;;
75295;SDS011;64623;44.738;37.804;2023-10-09T05:51:30;3.80;;;1.48;;
75295;SDS011;64623;44.738;37.804;2023-10-09T05:52:45;3.42;;;1.17;;
75295;SDS011;64623;44.738;37.804;2023-10-09T05:53:54;2.40;;;1.42;;
75295;SDS011;64623;44.738;37.804;2023-10-09T05:55:35;3.13;;;1.30;;
75295;SDS011;64623;44.738;37.804;2023-10-09T05:56:56;3.10;;;1.42;;
75295;SDS011;64623;44.738;37.804;2023-10-09T05:58:31;2.72;;;1.58;;
75295;SDS011;64623;44.738;37.804;2023-10-09T05:59:53;2.38;;;1.05;;
75295;SDS011;64623;44.738;37.804;2023-10-09T06:01:15;3.20;;;0.90;;
75295;SDS011;64623;44.738;37.804;2023-10-09T06:02:36;1.33;;;1.13;;
75295;SDS011;64623;44.738;37.804;2023-10-09T06:04:02;4.55;;;0.88;;
75295;SDS011;64623;44.738;37.804;2023-10-09T06:05:18;1.27;;;0.57;;
75295;SDS011;64623;44.738;37.804;2023-10-09T06:06:39;2.55;;;0.77;;
75295;SDS011;64623;44.738;37.804;2023-10-09T06:07:48;2.33;;;0.88;;
75295;SDS011;64623;44.738;37.804;2023-10-09T06:09:09;2.42;;;0.68;;
75295;SDS011;64623;44.738;37.804;2023-10-09T06:10:15;1.92;;;0.85;;
75295;SDS011;64623;44.738;37.804;2023-10-09T06:12:37;2.58;;;0.82;;
75295;SDS011;64623;44.738;37.804;2023-10-09T06:13:45;1.85;;;1.05;;
75295;SDS011;64623;44.738;37.804;2023-10-09T06:14:49;2.33;;;1.05;;
75295;SDS011;64623;44.738;37.804;2023-10-09T06:15:51;1.92;;;1.33;;
75295;SDS011;64623;44.738;37.804;2023-10-09T06:17:11;3.08;;;0.80;;
75295;SDS011;64623;44.738;37.804;2023-10-09T06:18:25;2.22;;;0.77;;
75295;SDS011;64623;44.738;37.804;2023-10-09T06:19:28;3.95;;;0.85;;
75295;SDS011;64623;44.738;37.804;2023-10-09T06:20:34;1.45;;;0.80;;
75295;SDS011;64623;44.738;37.804;2023-10-09T06:22:02;3.30;;;1.08;;
75295;SDS011;64623;44.738;37.804;2023-10-09T06:23:15;2.75;;;1.08;;
75295;SDS011;64623;44.738;37.804;2023-10-09T06:24:21;2.60;;;1.13;;
75295;SDS011;64623;44.738;37.804;2023-10-09T06:25:25;3.42;;;1.02;;
75295;SDS011;64623;44.738;37.804;2023-10-09T06:26:35;4.05;;;1.05;;
75295;SDS011;64623;44.738;37.804;2023-10-09T06:27:38;2.45;;;1.13;;
75295;SDS011;64623;44.738;37.804;2023-10-09T06:28:59;2.20;;;1.23;;
75295;SDS011;64623;44.738;37.804;2023-10-09T06:30:18;2.17;;;1.10;;
75295;SDS011;64623;44.738;37.804;2023-10-09T06:31:21;2.00;;;1.05;;
75295;SDS011;64623;44.738;37.804;2023-10-09T06:32:53;3.20;;;0.85;;
75295;SDS011;64623;44.738;37.804;2023-10-09T06:34:05;3.25;;;0.98;;
75295;SDS011;64623;44.738;37.804;2023-10-09T06:35:17;2.40;;;0.88;;
75295;SDS011;64623;44.738;37.804;2023-10-09T06:36:32;2.78;;;1.05;;
75295;SDS011;64623;44.738;37.804;2023-10-09T06:37:35;1.77;;;0.68;;
75295;SDS011;64623;44.738;37.804;2023-10-09T06:38:40;1.92;;;0.73;;
75295;SDS011;64623;44.738;37.804;2023-10-09T06:40:03;2.85;;;0.95;;
75295;SDS011;64623;44.738;37.804;2023-10-09T06:41:32;1.90;;;0.70;;
75295;SDS011;64623;44.738;37.804;2023-10-09T06:42:39;1.85;;;1.13;;
75295;SDS011;64623;44.738;37.804;2023-10-09T06:43:43;3.53;;;1.40;;
75295;SDS011;64623;44.738;37.804;2023-10-09T06:44:50;1.85;;;0.88;;
75295;SDS011;64623;44.738;37.804;2023-10-09T06:45:56;2.22;;;1.20;;
75295;SDS011;64623;44.738;37.804;2023-10-09T06:47:18;5.10;;;0.95;;
75295;SDS011;64623;44.738;37.804;2023-10-09T06:48:21;4.15;;;0.60;;
75295;SDS011;64623;44.738;37.804;2023-10-09T06:49:36;3.80;;;0.47;;
75295;SDS011;64623;44.738;37.804;2023-10-09T06:50:39;2.25;;;0.70;;
75295;SDS011;64623;44.738;37.804;2023-10-09T06:52:00;2.70;;;0.65;;
75295;SDS011;64623;44.738;37.804;2023-10-09T06:53:17;2.17;;;1.00;;
75295;SDS011;64623;44.738;37.804;2023-10-09T06:54:28;1.60;;;0.73;;
75295;SDS011;64623;44.738;37.804;2023-10-09T06:55:39;4.75;;;0.60;;